AES weather

El Socorro Airport
Hermosillo, Sonora, Mexico

Public forecast

Using degrees Celsius for public forecast. Weather courtesy of forecast.io.

Closest aviation weather report (METAR) to El Socorro Airport

Report is more than 2 hours old.

Closest report is General Ignacio P. Garcia International Airport, 13.8 nm (25.6 km) NE. Retrieved 2020/03/31 05:40 UTC (5 hours ago):

MMHO 310540Z 23005KT 10SM OVC200 18/06 A3001 RMK SLP162 52003 910 8/007 HZY

Closest aviation forecast (TAF) to El Socorro Airport

Closest forecast is General Ignacio P. Garcia International Airport, 13.8 nm (25.6 km) NE. Retrieved 2020/03/31 06:30 UTC (4 hours ago):

TAF MMHO 310423Z 3106/0106 00000KT P6SM BKN250 FM311800 34010KT P6SM BKN100 OVC250 FM010500 30005KT P6SM BKN250